createdAt,value
2018-07-09T00:01:00.335Z,8.20
2018-07-09T00:03:28.842Z,10.00
2018-07-09T00:05:57.608Z,12.83
2018-07-09T00:08:26.457Z,11.80
2018-07-09T00:11:02.660Z,10.20
2018-07-09T00:13:31.824Z,8.43
2018-07-09T00:16:01.442Z,10.50
2018-07-09T00:18:30.102Z,8.07
2018-07-09T00:20:58.677Z,7.87
2018-07-09T00:23:27.295Z,15.33
2018-07-09T00:25:56.715Z,10.70
2018-07-09T00:28:25.898Z,12.43
2018-07-09T00:30:54.410Z,9.28
2018-07-09T00:33:23.223Z,9.53
2018-07-09T00:35:51.745Z,8.53
2018-07-09T00:38:20.649Z,24.27
2018-07-09T00:40:50.914Z,9.10
2018-07-09T00:43:19.494Z,12.87
2018-07-09T00:45:48.074Z,13.90
2018-07-09T00:48:16.871Z,13.87
2018-07-09T00:50:45.660Z,10.70
2018-07-09T00:53:14.144Z,15.17
2018-07-09T00:55:42.768Z,13.77
2018-07-09T00:58:11.335Z,11.33
2018-07-09T01:00:39.930Z,13.13
2018-07-09T01:03:08.440Z,30.70
2018-07-09T01:05:36.947Z,18.05
2018-07-09T01:08:05.498Z,13.00
2018-07-09T01:10:45.678Z,13.60
2018-07-09T01:13:14.215Z,18.10
2018-07-09T01:15:42.732Z,16.23
2018-07-09T01:18:11.312Z,16.30
2018-07-09T01:20:39.895Z,17.27
2018-07-09T01:23:08.381Z,14.10
2018-07-09T01:25:36.935Z,14.30
2018-07-09T01:28:05.451Z,11.60
2018-07-09T01:30:35.944Z,19.93
2018-07-09T01:33:04.520Z,14.13
2018-07-09T01:35:33.485Z,22.27
2018-07-09T01:38:01.974Z,16.63
2018-07-09T01:40:30.456Z,21.33
2018-07-09T01:42:58.975Z,17.70
2018-07-09T01:45:27.490Z,23.18
2018-07-09T01:47:55.995Z,18.63
2018-07-09T01:50:24.503Z,17.30
2018-07-09T01:52:52.716Z,26.33
2018-07-09T01:55:21.256Z,23.40
2018-07-09T01:57:49.794Z,33.48
2018-07-09T02:00:18.287Z,28.38
2018-07-09T02:02:46.816Z,37.90
2018-07-09T02:05:15.321Z,35.77
2018-07-09T02:07:43.817Z,37.75
2018-07-09T02:10:12.362Z,45.57
2018-07-09T02:12:40.860Z,47.40
2018-07-09T02:15:09.695Z,51.77
2018-07-09T02:17:38.233Z,40.40
2018-07-09T02:20:07.119Z,31.75
2018-07-09T02:22:35.657Z,37.30
2018-07-09T02:25:04.212Z,39.73
2018-07-09T02:27:33.648Z,28.95
2018-07-09T02:30:02.152Z,32.03
2018-07-09T02:32:30.649Z,27.02
2018-07-09T02:34:59.148Z,28.32
2018-07-09T02:37:27.652Z,27.52
2018-07-09T02:39:56.339Z,32.48
2018-07-09T02:42:24.857Z,26.37
2018-07-09T02:44:53.674Z,28.57
2018-07-09T02:47:22.181Z,27.55
2018-07-09T02:49:51.475Z,26.20
2018-07-09T02:52:20.013Z,25.62
2018-07-09T02:54:48.548Z,25.90
2018-07-09T03:04:03.560Z,21.00
2018-07-09T03:06:32.072Z,26.35
2018-07-09T03:09:00.583Z,22.55
2018-07-09T03:11:29.208Z,25.00
2018-07-09T03:13:57.714Z,76.17
2018-07-09T03:16:26.221Z,93.70
2018-07-09T03:18:54.783Z,77.72
2018-07-09T03:21:23.449Z,86.75
2018-07-09T03:23:51.932Z,85.05
2018-07-09T03:26:21.569Z,64.60
2018-07-09T03:28:50.051Z,73.02
2018-07-09T03:31:18.683Z,69.65
2018-07-09T03:33:47.230Z,64.77
2018-07-09T03:36:15.932Z,54.70
2018-07-09T03:38:44.462Z,61.20
2018-07-09T03:41:13.276Z,46.40
2018-07-09T03:43:41.786Z,57.73
2018-07-09T03:46:10.280Z,53.00
2018-07-09T03:48:38.826Z,70.22
2018-07-09T03:51:07.376Z,103.38
2018-07-09T03:53:35.877Z,144.07
2018-07-09T03:56:04.485Z,168.72
2018-07-09T03:58:33.125Z,137.18
2018-07-09T04:01:01.734Z,128.00
2018-07-09T04:03:30.274Z,128.55
2018-07-09T04:05:58.834Z,116.77
2018-07-09T04:08:27.359Z,126.70
2018-07-09T04:10:55.899Z,126.97
2018-07-09T04:13:24.508Z,126.02
2018-07-09T04:15:53.028Z,124.85
2018-07-09T04:18:24.716Z,130.30
2018-07-09T04:20:55.187Z,118.50
2018-07-09T04:23:23.668Z,88.17
2018-07-09T04:25:52.666Z,75.70
2018-07-09T04:28:21.546Z,58.53
2018-07-09T04:30:50.100Z,53.73
2018-07-09T04:33:18.904Z,38.93
2018-07-09T04:35:47.420Z,27.03
2018-07-09T04:38:16.006Z,29.03
2018-07-09T04:40:44.497Z,25.03
2018-07-09T04:43:13.151Z,25.00
2018-07-09T04:45:41.645Z,27.73
2018-07-09T04:48:10.168Z,20.53
2018-07-09T04:50:38.768Z,15.00
2018-07-09T04:53:07.260Z,20.83
2018-07-09T04:55:35.804Z,25.03
2018-07-09T04:58:04.507Z,22.00
2018-07-09T05:00:33.009Z,28.70
2018-07-09T05:03:01.547Z,14.87
2018-07-09T05:05:30.058Z,15.67
2018-07-09T05:07:58.545Z,19.80
2018-07-09T05:10:27.126Z,16.90
2018-07-09T05:12:55.967Z,14.30
2018-07-09T05:15:24.543Z,17.03
2018-07-09T05:17:53.125Z,17.80
2018-07-09T05:20:21.647Z,14.40
2018-07-09T05:22:50.210Z,12.67
2018-07-09T05:25:18.451Z,14.33
2018-07-09T05:27:46.925Z,15.10
2018-07-09T05:30:15.395Z,15.17
2018-07-09T05:32:44.854Z,23.60
2018-07-09T05:35:13.389Z,13.93
2018-07-09T05:37:41.949Z,12.30
2018-07-09T05:40:10.517Z,12.97
2018-07-09T05:42:39.152Z,15.90
2018-07-09T05:45:07.875Z,17.60
2018-07-09T05:47:36.765Z,12.10
2018-07-09T05:50:05.337Z,11.80
2018-07-09T05:52:33.832Z,13.07
2018-07-09T05:55:02.452Z,9.13
2018-07-09T05:57:30.987Z,12.13
2018-07-09T05:59:59.574Z,12.03
2018-07-09T06:02:28.782Z,10.97
2018-07-09T06:04:57.361Z,12.93
2018-07-09T06:07:25.887Z,8.43
2018-07-09T06:09:54.435Z,8.90
2018-07-09T06:12:22.985Z,13.73
2018-07-09T06:14:51.508Z,5.83
2018-07-09T06:17:20.081Z,6.83
2018-07-09T06:19:48.615Z,10.47
2018-07-09T06:22:17.143Z,9.73
2018-07-09T06:24:45.755Z,13.03
2018-07-09T06:27:14.286Z,6.67
2018-07-09T06:29:42.924Z,8.73
2018-07-09T06:32:11.525Z,7.60
2018-07-09T06:34:40.083Z,8.80
2018-07-09T06:37:08.613Z,6.87
2018-07-09T06:39:37.746Z,10.73
2018-07-09T06:42:06.296Z,6.37
2018-07-09T06:44:34.994Z,5.70
2018-07-09T06:47:03.580Z,6.37
2018-07-09T06:49:32.205Z,6.27
2018-07-09T06:52:00.725Z,4.83
2018-07-09T06:54:29.297Z,5.80
2018-07-09T06:56:57.833Z,5.73
2018-07-09T06:59:26.375Z,4.40
2018-07-09T07:01:54.911Z,4.00
2018-07-09T07:04:23.432Z,4.77
2018-07-09T07:06:51.964Z,4.77
2018-07-09T07:09:20.182Z,14.70
2018-07-09T07:11:48.667Z,7.20
2018-07-09T07:14:17.332Z,9.43
2018-07-09T07:16:45.800Z,6.70
2018-07-09T07:19:14.291Z,5.00
2018-07-09T07:21:42.794Z,13.87
2018-07-09T07:24:11.339Z,4.80
2018-07-09T07:26:39.831Z,5.53
2018-07-09T07:29:09.479Z,7.47
2018-07-09T07:31:38.058Z,7.70
2018-07-09T07:34:06.658Z,8.10
2018-07-09T07:36:35.179Z,5.13
2018-07-09T07:39:03.966Z,6.23
2018-07-09T07:41:32.672Z,4.47
2018-07-09T07:44:01.223Z,16.50
2018-07-09T07:46:29.769Z,8.93
2018-07-09T07:48:58.265Z,7.27
2018-07-09T07:51:26.763Z,5.73
2018-07-09T07:53:55.311Z,4.30
2018-07-09T07:56:23.861Z,8.93
2018-07-09T07:58:52.427Z,8.30
2018-07-09T08:01:22.444Z,4.40
2018-07-09T08:03:50.959Z,4.37
2018-07-09T08:06:19.461Z,6.30
2018-07-09T08:08:48.046Z,11.20
2018-07-09T08:11:16.596Z,5.43
2018-07-09T08:13:45.177Z,5.77
2018-07-09T08:16:14.653Z,8.97
2018-07-09T08:18:44.038Z,3.47
2018-07-09T08:21:12.550Z,7.77
2018-07-09T08:23:41.084Z,3.40
2018-07-09T08:26:09.590Z,3.30
2018-07-09T08:28:38.147Z,3.33
2018-07-09T08:31:06.706Z,3.90
2018-07-09T08:33:35.247Z,3.80
2018-07-09T08:36:03.801Z,3.90
2018-07-09T08:38:33.517Z,14.43
2018-07-09T08:41:02.124Z,5.70
2018-07-09T08:43:30.577Z,3.17
2018-07-09T08:45:59.072Z,5.00
2018-07-09T08:48:28.801Z,2.77
2018-07-09T08:50:57.303Z,3.97
2018-07-09T08:53:25.853Z,2.70
2018-07-09T08:55:55.288Z,2.53
2018-07-09T08:58:23.754Z,3.70
2018-07-09T09:00:52.275Z,2.57
2018-07-09T09:03:20.782Z,3.63
2018-07-09T09:05:50.512Z,16.60
2018-07-09T09:08:19.199Z,9.90
2018-07-09T09:10:47.747Z,7.77
2018-07-09T09:13:15.962Z,2.63
2018-07-09T09:15:44.650Z,2.20
2018-07-09T09:18:13.100Z,3.03
2018-07-09T09:20:41.607Z,2.13
2018-07-09T09:23:10.255Z,2.73
2018-07-09T09:25:38.822Z,1.70
2018-07-09T09:28:07.551Z,2.40
2018-07-09T09:30:36.117Z,5.03
2018-07-09T09:33:04.630Z,5.67
2018-07-09T09:35:33.206Z,3.60
2018-07-09T09:38:01.726Z,3.60
2018-07-09T09:40:30.265Z,3.47
2018-07-09T09:42:58.830Z,7.07
2018-07-09T09:45:27.330Z,2.47
2018-07-09T09:47:55.927Z,5.93
2018-07-09T09:50:24.500Z,4.97
2018-07-09T09:52:53.081Z,2.20
2018-07-09T09:55:21.614Z,2.80
2018-07-09T09:57:50.086Z,1.70
2018-07-09T10:00:22.293Z,6.20
2018-07-09T10:02:50.786Z,2.07
2018-07-09T10:05:18.977Z,3.07
2018-07-09T10:07:47.479Z,2.03
2018-07-09T10:10:15.970Z,2.10
2018-07-09T10:12:44.431Z,2.20
2018-07-09T10:15:13.022Z,2.13
2018-07-09T10:17:42.193Z,2.03
2018-07-09T10:20:10.712Z,2.67
2018-07-09T10:22:39.371Z,2.60
2018-07-09T10:25:07.885Z,3.00
2018-07-09T10:27:36.425Z,2.33
2018-07-09T10:30:04.772Z,1.53
2018-07-09T10:32:34.094Z,2.13
2018-07-09T10:35:02.583Z,2.67
2018-07-09T10:37:31.133Z,2.50
2018-07-09T10:39:59.648Z,4.40
2018-07-09T10:42:28.167Z,2.30
2018-07-09T10:44:56.662Z,6.83
2018-07-09T10:47:25.228Z,2.70
2018-07-09T10:49:54.004Z,4.50
2018-07-09T10:52:22.806Z,1.73
2018-07-09T10:54:51.541Z,1.33
2018-07-09T10:57:20.289Z,2.13
2018-07-09T10:59:49.385Z,1.47
2018-07-09T11:02:18.599Z,1.70
2018-07-09T11:04:47.936Z,1.73
2018-07-09T11:07:16.572Z,3.17
2018-07-09T11:09:45.128Z,1.50
2018-07-09T11:12:13.719Z,2.73
2018-07-09T11:14:42.208Z,2.67
2018-07-09T11:17:10.777Z,2.13
2018-07-09T11:19:39.301Z,3.13
2018-07-09T11:22:07.860Z,1.30
2018-07-09T11:24:36.356Z,2.57
2018-07-09T11:27:04.879Z,2.57
2018-07-09T11:29:33.372Z,3.40
2018-07-09T11:32:02.785Z,2.03
2018-07-09T11:34:31.282Z,5.67
2018-07-09T11:37:00.287Z,1.50
2018-07-09T11:39:28.834Z,3.33
2018-07-09T11:41:57.484Z,2.37
2018-07-09T11:44:26.590Z,3.13
2018-07-09T11:46:55.108Z,1.80
2018-07-09T11:49:23.639Z,3.03
2018-07-09T11:51:52.173Z,1.50
2018-07-09T11:54:20.676Z,4.20
2018-07-09T11:56:49.147Z,2.80
2018-07-09T11:59:17.645Z,2.30
2018-07-09T12:01:46.168Z,2.60
2018-07-09T12:04:14.666Z,2.43
2018-07-09T12:06:43.796Z,7.57
2018-07-09T12:09:12.516Z,2.27
2018-07-09T12:11:41.185Z,5.40
2018-07-09T12:14:09.790Z,4.47
2018-07-09T12:16:38.421Z,1.93
2018-07-09T12:19:07.005Z,3.40
2018-07-09T12:21:39.101Z,1.77
2018-07-09T12:24:07.599Z,1.63
2018-07-09T12:26:36.184Z,4.73
2018-07-09T12:29:05.528Z,2.20
2018-07-09T12:31:34.055Z,2.60
2018-07-09T12:34:02.552Z,1.77
2018-07-09T12:36:31.133Z,6.43
2018-07-09T12:38:59.605Z,1.50
2018-07-09T12:41:28.405Z,2.13
2018-07-09T12:43:56.906Z,3.90
2018-07-09T12:46:26.151Z,1.80
2018-07-09T12:48:54.640Z,3.07
2018-07-09T12:51:24.408Z,3.33
2018-07-09T12:53:53.147Z,2.47
2018-07-09T12:56:21.634Z,1.70
2018-07-09T12:58:50.151Z,5.20
2018-07-09T13:01:18.674Z,3.93
2018-07-09T13:03:47.472Z,1.83
2018-07-09T13:06:16.977Z,3.70
2018-07-09T13:08:45.593Z,2.73
2018-07-09T13:11:14.169Z,4.03
2018-07-09T13:13:42.682Z,2.10
2018-07-09T13:16:11.265Z,1.83
2018-07-09T13:18:39.791Z,2.90
2018-07-09T13:21:08.381Z,2.10
2018-07-09T13:23:37.585Z,4.30
2018-07-09T13:26:06.130Z,4.83
2018-07-09T13:28:34.686Z,1.80
2018-07-09T13:31:03.517Z,3.47
2018-07-09T13:33:32.317Z,2.23
2018-07-09T13:36:00.917Z,1.70
2018-07-09T13:38:30.704Z,2.10
2018-07-09T13:40:59.187Z,2.70
2018-07-09T13:43:27.699Z,2.70
2018-07-09T13:45:55.899Z,4.73
2018-07-09T13:48:24.444Z,3.17
2018-07-09T13:50:53.076Z,2.47
2018-07-09T13:53:21.864Z,4.37
2018-07-09T13:55:51.705Z,2.13
2018-07-09T13:58:20.296Z,3.67
2018-07-09T14:00:48.775Z,1.43
2018-07-09T14:03:18.836Z,1.40
2018-07-09T14:05:47.413Z,2.30
2018-07-09T14:08:15.922Z,3.33
2018-07-09T14:10:44.497Z,2.83
2018-07-09T14:13:13.034Z,3.03
2018-07-09T14:15:41.592Z,4.73
2018-07-09T14:18:10.470Z,4.70
2018-07-09T14:20:41.224Z,7.70
2018-07-09T14:23:10.810Z,2.40
2018-07-09T14:25:39.620Z,2.33
2018-07-09T14:28:08.136Z,6.30
2018-07-09T14:30:36.956Z,1.73
2018-07-09T14:33:05.756Z,1.53
2018-07-09T14:35:34.969Z,2.53
2018-07-09T14:38:03.489Z,2.07
2018-07-09T14:40:31.954Z,2.77
2018-07-09T14:43:01.076Z,1.90
2018-07-09T14:45:30.217Z,2.40
2018-07-09T14:47:58.676Z,2.10
2018-07-09T14:50:27.154Z,4.10
2018-07-09T14:52:57.074Z,1.37
2018-07-09T14:55:25.563Z,3.33
2018-07-09T14:57:54.072Z,2.47
2018-07-09T15:00:22.641Z,6.20
2018-07-09T15:02:51.152Z,3.03
2018-07-09T15:05:19.655Z,2.10
2018-07-09T15:07:48.135Z,3.17
2018-07-09T15:10:16.603Z,2.27
2018-07-09T15:12:45.111Z,5.30
2018-07-09T15:15:14.265Z,3.80
2018-07-09T15:17:44.102Z,2.90
2018-07-09T15:20:12.622Z,3.20
2018-07-09T15:22:41.091Z,3.13
2018-07-09T15:25:09.590Z,2.77
2018-07-09T15:27:38.215Z,2.87
2018-07-09T15:30:06.795Z,4.47
2018-07-09T15:32:35.315Z,2.53
2018-07-09T15:35:03.859Z,2.80
2018-07-09T15:37:32.437Z,4.77
2018-07-09T15:40:01.016Z,9.03
2018-07-09T15:42:29.591Z,3.80
2018-07-09T15:44:58.182Z,2.90
2018-07-09T15:47:26.680Z,4.87
2018-07-09T15:49:55.158Z,7.47
2018-07-09T15:52:23.644Z,3.50
2018-07-09T15:54:52.301Z,3.07
2018-07-09T15:57:21.930Z,2.27
2018-07-09T15:59:51.123Z,3.80
2018-07-09T16:02:19.708Z,1.53
2018-07-09T16:04:48.376Z,1.80
2018-07-09T16:07:17.073Z,1.63
2018-07-09T16:09:45.632Z,2.10
2018-07-09T16:12:14.251Z,3.60
2018-07-09T16:14:42.754Z,2.00
2018-07-09T16:17:11.371Z,4.97
2018-07-09T16:19:39.864Z,2.13
2018-07-09T16:22:10.932Z,1.20
2018-07-09T16:24:39.395Z,1.73
2018-07-09T16:27:08.534Z,1.37
2018-07-09T16:29:37.122Z,3.80
2018-07-09T16:32:05.618Z,1.17
2018-07-09T16:34:34.125Z,1.10
2018-07-09T16:37:03.164Z,2.30
2018-07-09T16:39:31.675Z,0.80
2018-07-09T16:42:00.213Z,0.70
2018-07-09T16:44:28.832Z,0.90
2018-07-09T16:46:57.358Z,1.47
2018-07-09T16:49:25.920Z,2.50
2018-07-09T16:51:54.465Z,0.50
2018-07-09T16:54:22.963Z,3.37
2018-07-09T16:56:51.598Z,4.33
2018-07-09T16:59:20.188Z,9.80
2018-07-09T17:01:48.720Z,1.13
2018-07-09T17:04:17.259Z,3.33
2018-07-09T17:06:45.785Z,4.03
2018-07-09T17:09:14.364Z,3.77
2018-07-09T17:11:42.927Z,1.40
2018-07-09T17:14:11.413Z,1.40
2018-07-09T17:16:40.004Z,1.40
2018-07-09T17:19:08.583Z,2.30
2018-07-09T17:21:37.007Z,2.10
2018-07-09T17:24:05.857Z,2.77
2018-07-09T17:26:34.609Z,2.10
2018-07-09T17:29:02.953Z,1.30
2018-07-09T17:31:31.738Z,1.50
2018-07-09T17:34:01.009Z,2.23
2018-07-09T17:36:29.522Z,2.30
2018-07-09T17:38:58.976Z,3.03
2018-07-09T17:41:27.483Z,1.73
2018-07-09T17:43:56.191Z,2.10
2018-07-09T17:46:24.757Z,2.00
2018-07-09T17:48:53.266Z,3.93
2018-07-09T17:51:21.824Z,3.33
2018-07-09T17:53:50.829Z,1.63
2018-07-09T17:56:19.526Z,1.67
2018-07-09T17:58:49.238Z,2.03
2018-07-09T18:01:17.928Z,1.93
2018-07-09T18:03:46.558Z,1.83
2018-07-09T18:06:14.777Z,1.90
2018-07-09T18:08:43.343Z,6.83
2018-07-09T18:11:11.902Z,1.60
2018-07-09T18:13:41.234Z,6.37
2018-07-09T18:16:09.814Z,1.20
2018-07-09T18:18:38.414Z,1.70
2018-07-09T18:21:06.928Z,1.30
2018-07-09T18:23:35.424Z,2.43
2018-07-09T18:26:03.954Z,1.37
2018-07-09T18:28:32.493Z,2.83
2018-07-09T18:31:00.715Z,3.70
2018-07-09T18:33:29.203Z,1.23
2018-07-09T18:35:57.772Z,5.20
2018-07-09T18:38:26.330Z,1.13
2018-07-09T18:40:55.062Z,1.50
2018-07-09T18:43:23.580Z,1.50
2018-07-09T18:45:52.761Z,2.00
2018-07-09T18:48:21.484Z,5.60
2018-07-09T18:50:50.009Z,1.33
2018-07-09T18:53:18.530Z,1.80
2018-07-09T18:55:47.043Z,4.33
2018-07-09T18:58:15.569Z,5.83
2018-07-09T19:00:44.068Z,5.23
2018-07-09T19:03:12.602Z,2.03
2018-07-09T19:05:52.112Z,2.40
2018-07-09T19:08:20.747Z,17.20
2018-07-09T19:10:49.309Z,24.07
2018-07-09T19:13:17.902Z,5.27
2018-07-09T19:15:46.547Z,4.40
2018-07-09T19:18:27.555Z,3.23
2018-07-09T19:21:33.748Z,3.83
2018-07-09T19:24:02.680Z,2.73
2018-07-09T19:26:30.011Z,2.73
2018-07-09T19:28:57.396Z,3.37
2018-07-09T19:31:24.775Z,2.40
2018-07-09T19:33:52.144Z,6.50
2018-07-09T19:36:19.547Z,4.60
2018-07-09T19:38:46.902Z,5.20
2018-07-09T19:41:14.316Z,5.50
2018-07-09T19:43:41.911Z,4.87
2018-07-09T19:46:09.290Z,5.90
2018-07-09T19:48:36.687Z,4.87
2018-07-09T19:51:04.049Z,9.03
2018-07-09T19:53:31.424Z,6.90
2018-07-09T19:55:58.780Z,8.30
2018-07-09T19:58:26.316Z,8.63
2018-07-09T20:00:53.652Z,7.80
2018-07-09T20:03:21.032Z,9.30
2018-07-09T20:05:48.417Z,8.17
2018-07-09T20:08:15.782Z,8.37
2018-07-09T20:10:48.402Z,9.77
2018-07-09T20:13:21.003Z,11.17
2018-07-09T20:15:53.784Z,8.87
2018-07-09T20:18:21.155Z,9.53
2018-07-09T20:20:48.650Z,10.20
2018-07-09T20:23:16.027Z,8.03
2018-07-09T20:25:43.371Z,7.50
2018-07-09T20:28:10.799Z,8.07
2018-07-09T20:30:38.274Z,8.07
2018-07-09T20:33:06.625Z,7.27
2018-07-09T20:35:34.093Z,8.53
2018-07-09T20:38:01.463Z,7.33
2018-07-09T20:40:28.833Z,9.03
2018-07-09T20:42:56.229Z,7.43
2018-07-09T20:45:23.687Z,9.30
2018-07-09T20:47:51.060Z,7.77
2018-07-09T20:50:18.434Z,10.07
2018-07-09T20:52:46.456Z,15.30
2018-07-09T20:55:13.810Z,9.20
2018-07-09T20:57:41.282Z,14.60
2018-07-09T21:00:08.622Z,10.40
2018-07-09T21:02:36.096Z,11.87
2018-07-09T21:05:03.588Z,9.53
2018-07-09T21:07:30.966Z,11.17
2018-07-09T21:09:58.332Z,11.10
2018-07-09T21:12:26.754Z,11.20
2018-07-09T21:14:55.235Z,12.53
2018-07-09T21:17:22.621Z,11.63
2018-07-09T21:19:49.985Z,19.93
2018-07-09T21:22:17.361Z,14.70
2018-07-09T21:24:44.731Z,12.73
2018-07-09T21:27:12.118Z,13.07
2018-07-09T21:29:39.492Z,15.47
2018-07-09T21:32:08.443Z,14.77
2018-07-09T21:34:35.831Z,16.50
2018-07-09T21:37:03.189Z,13.60
2018-07-09T21:39:30.552Z,17.23
2018-07-09T21:41:57.923Z,13.27
2018-07-09T21:44:26.132Z,25.97
2018-07-09T21:46:53.496Z,13.80
2018-07-09T21:49:20.894Z,15.90
2018-07-09T21:51:48.325Z,26.20
2018-07-09T21:54:15.671Z,10.60
2018-07-09T21:56:43.225Z,10.07
2018-07-09T21:59:10.573Z,10.77
2018-07-09T22:01:37.943Z,11.40
2018-07-09T22:04:05.614Z,15.70
2018-07-09T22:06:32.972Z,14.60
2018-07-09T22:09:00.317Z,15.17
2018-07-09T22:11:28.565Z,12.77
2018-07-09T22:13:56.165Z,14.17
2018-07-09T22:16:23.519Z,16.43
2018-07-09T22:18:51.081Z,10.27
2018-07-09T22:21:18.527Z,9.53
2018-07-09T22:23:45.873Z,9.70
2018-07-09T22:26:14.237Z,18.90
2018-07-09T22:28:41.584Z,18.57
2018-07-09T22:31:10.183Z,11.33
2018-07-09T22:33:38.868Z,16.80
2018-07-09T22:36:07.385Z,10.00
2018-07-09T22:38:36.303Z,11.20
2018-07-09T22:41:04.824Z,11.83
2018-07-09T22:43:44.589Z,8.63
2018-07-09T22:46:13.094Z,15.57
2018-07-09T22:48:41.579Z,16.63
2018-07-09T22:51:10.170Z,14.73
2018-07-09T22:53:38.634Z,12.73
2018-07-09T22:56:10.639Z,11.70
2018-07-09T22:58:41.232Z,14.43
2018-07-09T23:01:09.816Z,10.27
2018-07-09T23:03:38.348Z,11.30
2018-07-09T23:06:06.817Z,18.07
2018-07-09T23:08:35.321Z,15.73
2018-07-09T23:12:12.925Z,10.03
2018-07-09T23:14:53.116Z,9.80
2018-07-09T23:18:32.977Z,7.10
2018-07-09T23:23:15.912Z,9.90
2018-07-09T23:25:43.305Z,22.83
2018-07-09T23:28:10.665Z,9.53
2018-07-09T23:30:38.029Z,6.87
2018-07-09T23:33:05.711Z,4.07
2018-07-09T23:35:33.068Z,10.50
2018-07-09T23:38:00.409Z,5.23
2018-07-09T23:40:27.799Z,6.63
2018-07-09T23:42:55.162Z,6.50
2018-07-09T23:45:22.491Z,4.47
2018-07-09T23:47:50.219Z,9.63
2018-07-09T23:50:17.580Z,3.70
2018-07-09T23:52:44.938Z,3.87
2018-07-09T23:55:12.356Z,5.47
